sensor_id;sensor_type;location;lat;lon;timestamp;P1;P4;P2;P0;N10;N4;N25;N1;N05;TS
65988;SPS30;53592;51.402;6.054;2023-02-01T00:02:06;12.00;11.98;11.87;11.09;88.59;88.56;88.50;88.12;77.23;0.56
65988;SPS30;53592;51.402;6.054;2023-02-01T00:04:31;12.00;11.99;11.90;11.15;89.10;89.07;89.01;88.67;77.75;0.55
65988;SPS30;53592;51.402;6.054;2023-02-01T00:06:57;11.60;11.59;11.52;10.81;86.35;86.33;86.27;85.95;75.40;0.54
65988;SPS30;53592;51.402;6.054;2023-02-01T00:09:23;11.37;11.36;11.31;10.65;85.05;85.02;84.98;84.69;74.33;0.54
65988;SPS30;53592;51.402;6.054;2023-02-01T00:11:48;10.79;10.77;10.68;9.99;79.79;79.76;79.71;79.38;69.59;0.55
65988;SPS30;53592;51.402;6.054;2023-02-01T00:14:14;10.45;10.45;10.43;9.84;78.58;78.56;78.52;78.29;68.74;0.53
65988;SPS30;53592;51.402;6.054;2023-02-01T00:16:41;9.86;9.86;9.83;9.26;73.93;73.91;73.87;73.63;64.63;0.53
65988;SPS30;53592;51.402;6.054;2023-02-01T00:19:10;9.89;9.89;9.85;9.27;74.03;74.01;73.97;73.72;64.70;0.54
65988;SPS30;53592;51.402;6.054;2023-02-01T00:21:38;9.80;9.77;9.62;8.92;71.26;71.24;71.17;70.79;61.95;0.58
65988;SPS30;53592;51.402;6.054;2023-02-01T00:24:03;9.65;9.62;9.45;8.74;69.85;69.82;69.75;69.35;60.66;0.59
65988;SPS30;53592;51.402;6.054;2023-02-01T00:26:40;9.44;9.41;9.24;8.55;68.28;68.26;68.19;67.80;59.30;0.58
65988;SPS30;53592;51.402;6.054;2023-02-01T00:29:10;9.21;9.18;9.03;8.37;66.87;66.84;66.78;66.41;58.10;0.58
65988;SPS30;53592;51.402;6.054;2023-02-01T00:31:38;9.09;9.05;8.90;8.23;65.78;65.76;65.69;65.32;57.13;0.58
65988;SPS30;53592;51.402;6.054;2023-02-01T00:34:04;8.91;8.86;8.64;7.90;63.16;63.14;63.05;62.60;54.63;0.59
65988;SPS30;53592;51.402;6.054;2023-02-01T00:36:30;8.15;8.10;7.85;7.13;57.03;57.00;56.91;56.45;49.20;0.59
65988;SPS30;53592;51.402;6.054;2023-02-01T00:38:56;8.00;7.95;7.74;7.08;56.57;56.55;56.47;56.06;48.91;0.60
65988;SPS30;53592;51.402;6.054;2023-02-01T00:41:22;7.91;7.88;7.70;7.08;56.57;56.55;56.48;56.11;49.01;0.57
65988;SPS30;53592;51.402;6.054;2023-02-01T00:43:48;8.26;8.22;8.03;7.37;58.89;58.87;58.79;58.40;50.99;0.57
65988;SPS30;53592;51.402;6.054;2023-02-01T00:46:16;8.23;8.19;7.98;7.30;58.31;58.28;58.20;57.78;50.42;0.58
65988;SPS30;53592;51.402;6.054;2023-02-01T00:48:43;8.12;8.07;7.82;7.11;56.87;56.84;56.76;56.30;49.07;0.57
65988;SPS30;53592;51.402;6.054;2023-02-01T00:51:11;7.95;7.91;7.72;7.07;56.48;56.46;56.38;55.99;48.87;0.56
65988;SPS30;53592;51.402;6.054;2023-02-01T00:53:39;7.94;7.89;7.66;6.98;55.81;55.78;55.70;55.27;48.19;0.57
65988;SPS30;53592;51.402;6.054;2023-02-01T00:56:05;8.28;8.21;7.90;7.11;56.81;56.79;56.68;56.14;48.82;0.59
65988;SPS30;53592;51.402;6.054;2023-02-01T00:58:31;7.93;7.87;7.59;6.85;54.75;54.72;54.63;54.13;47.10;0.57
65988;SPS30;53592;51.402;6.054;2023-02-01T01:01:05;7.88;7.83;7.53;6.78;54.19;54.16;54.07;53.55;46.58;0.56
65988;SPS30;53592;51.402;6.054;2023-02-01T01:03:32;7.38;7.33;7.07;6.38;50.99;50.96;50.88;50.42;43.88;0.58
65988;SPS30;53592;51.402;6.054;2023-02-01T01:06:01;6.80;6.75;6.55;5.95;47.59;47.57;47.49;47.11;41.06;0.57
65988;SPS30;53592;51.402;6.054;2023-02-01T01:08:28;6.98;6.92;6.61;5.89;47.12;47.09;47.00;46.49;40.35;0.60
65988;SPS30;53592;51.402;6.054;2023-02-01T01:10:54;7.23;7.15;6.75;5.92;47.37;47.34;47.22;46.60;40.31;0.60
65988;SPS30;53592;51.402;6.054;2023-02-01T01:13:20;6.78;6.70;6.27;5.43;43.47;43.44;43.31;42.67;36.80;0.61
65988;SPS30;53592;51.402;6.054;2023-02-01T01:15:46;6.71;6.61;6.13;5.24;41.96;41.93;41.79;41.08;35.33;0.60
65988;SPS30;53592;51.402;6.054;2023-02-01T01:18:11;6.58;6.48;5.99;5.08;40.69;40.66;40.51;39.79;34.17;0.60
65988;SPS30;53592;51.402;6.054;2023-02-01T01:20:38;6.86;6.75;6.18;5.19;41.55;41.52;41.36;40.55;34.73;0.61
65988;SPS30;53592;51.402;6.054;2023-02-01T01:23:04;6.52;6.43;5.95;5.07;40.62;40.59;40.45;39.75;34.17;0.61
65988;SPS30;53592;51.402;6.054;2023-02-01T01:25:32;6.78;6.69;6.23;5.35;42.79;42.76;42.63;41.94;36.11;0.61
65988;SPS30;53592;51.402;6.054;2023-02-01T01:28:01;6.24;6.16;5.74;4.95;39.59;39.56;39.44;38.82;33.44;0.62
65988;SPS30;53592;51.402;6.054;2023-02-01T01:30:36;7.16;7.04;6.43;5.36;42.96;42.92;42.75;41.88;35.81;0.63
65988;SPS30;53592;51.402;6.054;2023-02-01T01:33:07;6.44;6.32;5.71;4.70;37.64;37.61;37.44;36.59;31.19;0.63
65988;SPS30;53592;51.402;6.054;2023-02-01T01:35:36;6.26;6.14;5.58;4.63;37.07;37.04;36.88;36.09;30.82;0.63
65988;SPS30;53592;51.402;6.054;2023-02-01T01:38:02;6.35;6.24;5.69;4.74;37.94;37.91;37.76;36.97;31.61;0.64
65988;SPS30;53592;51.402;6.054;2023-02-01T01:40:28;6.71;6.56;5.84;4.68;37.51;37.47;37.27;36.28;30.72;0.68
65988;SPS30;53592;51.402;6.054;2023-02-01T01:43:01;7.29;7.11;6.20;4.79;38.46;38.41;38.17;36.94;31.00;0.68
65988;SPS30;53592;51.402;6.054;2023-02-01T01:45:42;7.27;7.08;6.16;4.74;38.08;38.03;37.78;36.54;30.63;0.70
65988;SPS30;53592;51.402;6.054;2023-02-01T01:48:24;7.16;6.97;6.05;4.64;37.27;37.23;36.98;35.74;29.93;0.69
65988;SPS30;53592;51.402;6.054;2023-02-01T01:51:20;6.98;6.82;6.03;4.77;38.27;38.23;38.02;36.93;31.19;0.68
65988;SPS30;53592;51.402;6.054;2023-02-01T01:54:02;6.72;6.58;5.89;4.76;38.13;38.09;37.90;36.94;31.35;0.67
65988;SPS30;53592;51.402;6.054;2023-02-01T01:56:44;7.14;6.99;6.23;5.00;40.12;40.08;39.87;38.83;32.90;0.68
65988;SPS30;53592;51.402;6.054;2023-02-01T01:59:38;7.17;7.01;6.21;4.94;39.66;39.61;39.40;38.31;32.39;0.66
65988;SPS30;53592;51.402;6.054;2023-02-01T02:02:07;6.15;6.06;5.61;4.78;38.24;38.21;38.08;37.42;32.15;0.62
65988;SPS30;53592;51.402;6.054;2023-02-01T02:04:42;6.43;6.34;5.86;4.99;39.92;39.89;39.76;39.06;33.56;0.64
65988;SPS30;53592;51.402;6.054;2023-02-01T02:07:16;6.71;6.61;6.09;5.15;41.25;41.22;41.07;40.32;34.60;0.64
65988;SPS30;53592;51.402;6.054;2023-02-01T02:09:58;6.44;6.33;5.78;4.83;38.67;38.64;38.48;37.70;32.25;0.63
65988;SPS30;53592;51.402;6.054;2023-02-01T02:12:25;6.91;6.80;6.24;5.25;42.05;42.01;41.86;41.05;35.18;0.62
65988;SPS30;53592;51.402;6.054;2023-02-01T02:15:01;6.88;6.76;6.17;5.14;41.17;41.14;40.97;40.13;34.31;0.63
65988;SPS30;53592;51.402;6.054;2023-02-01T02:26:15;6.97;6.83;6.09;4.89;39.24;39.20;39.00;37.98;32.20;0.66
65988;SPS30;53592;51.402;6.054;2023-02-01T02:34:50;7.91;7.75;6.96;5.66;45.40;45.36;45.14;44.05;37.45;0.65
65988;SPS30;53592;51.402;6.054;2023-02-01T02:37:45;7.02;6.91;6.38;5.41;43.34;43.30;43.15;42.38;36.39;0.62
65988;SPS30;53592;51.402;6.054;2023-02-01T02:40:29;7.00;6.92;6.49;5.65;45.18;45.15;45.03;44.38;38.32;0.59
65988;SPS30;53592;51.402;6.054;2023-02-01T02:43:26;7.48;7.38;6.87;5.90;47.20;47.17;47.02;46.26;39.82;0.61
65988;SPS30;53592;51.402;6.054;2023-02-01T02:46:33;8.08;7.94;7.26;6.06;48.55;48.51;48.32;47.34;40.50;0.62
65988;SPS30;53592;51.402;6.054;2023-02-01T02:49:29;8.03;7.88;7.10;5.80;46.49;46.45;46.24;45.14;38.42;0.66
65988;SPS30;53592;51.402;6.054;2023-02-01T02:52:05;7.98;7.86;7.23;6.11;48.94;48.90;48.73;47.82;41.02;0.63
65988;SPS30;53592;51.402;6.054;2023-02-01T02:55:00;7.79;7.67;7.05;5.95;47.63;47.59;47.42;46.53;39.89;0.65
65988;SPS30;53592;51.402;6.054;2023-02-01T02:57:32;7.75;7.61;6.93;5.76;46.14;46.10;45.92;44.95;38.41;0.67
65988;SPS30;53592;51.402;6.054;2023-02-01T03:00:27;7.81;7.69;7.11;6.04;48.37;48.33;48.17;47.32;40.64;0.65
65988;SPS30;53592;51.402;6.054;2023-02-01T03:03:15;7.67;7.56;7.02;6.00;48.00;47.97;47.81;47.00;40.43;0.62
65988;SPS30;53592;51.402;6.054;2023-02-01T03:05:59;7.07;6.98;6.52;5.64;45.13;45.09;44.96;44.28;38.18;0.60
65988;SPS30;53592;51.402;6.054;2023-02-01T03:08:26;8.00;7.89;7.33;6.29;50.33;50.29;50.14;49.31;42.44;0.61
65988;SPS30;53592;51.402;6.054;2023-02-01T03:11:00;7.50;7.39;6.82;5.78;46.24;46.21;46.04;45.21;38.81;0.60
65988;SPS30;53592;51.402;6.054;2023-02-01T03:16:36;7.56;7.44;6.86;5.79;46.40;46.36;46.20;45.34;38.90;0.63
65988;SPS30;53592;51.402;6.054;2023-02-01T03:19:16;7.68;7.54;6.84;5.65;45.28;45.24;45.05;44.06;37.60;0.65
65988;SPS30;53592;51.402;6.054;2023-02-01T03:21:58;8.57;8.39;7.49;6.04;48.42;48.37;48.13;46.89;39.77;0.67
65988;SPS30;53592;51.402;6.054;2023-02-01T03:24:29;7.40;7.27;6.63;5.53;44.27;44.23;44.05;43.14;36.89;0.65
65988;SPS30;53592;51.402;6.054;2023-02-01T03:27:07;7.19;7.09;6.56;5.59;44.79;44.75;44.60;43.83;37.67;0.65
65988;SPS30;53592;51.402;6.054;2023-02-01T03:29:56;7.60;7.45;6.72;5.50;44.07;44.02;43.82;42.80;36.43;0.67
65988;SPS30;53592;51.402;6.054;2023-02-01T03:32:31;7.81;7.67;6.98;5.79;46.35;46.31;46.12;45.13;38.55;0.64
65988;SPS30;53592;51.402;6.054;2023-02-01T03:35:17;7.15;7.02;6.34;5.20;41.67;41.63;41.44;40.49;34.49;0.64
65988;SPS30;53592;51.402;6.054;2023-02-01T03:40:47;7.24;7.09;6.33;5.09;40.85;40.80;40.60;39.55;33.54;0.65
65988;SPS30;53592;51.402;6.054;2023-02-01T03:43:21;7.34;7.19;6.46;5.25;42.05;42.01;41.81;40.79;34.67;0.65
65988;SPS30;53592;51.402;6.054;2023-02-01T03:45:52;8.13;7.91;6.81;5.16;41.40;41.35;41.05;39.58;33.03;0.70
65988;SPS30;53592;51.402;6.054;2023-02-01T03:48:25;8.00;7.78;6.63;4.93;39.64;39.58;39.28;37.76;31.35;0.70
65988;SPS30;53592;51.402;6.054;2023-02-01T03:50:55;7.10;6.91;5.95;4.50;36.15;36.10;35.84;34.56;28.83;0.68
65988;SPS30;53592;51.402;6.054;2023-02-01T03:53:25;7.30;7.11;6.17;4.72;37.93;37.88;37.63;36.36;30.44;0.67
65988;SPS30;53592;51.402;6.054;2023-02-01T03:55:53;7.42;7.23;6.30;4.87;39.08;39.03;38.78;37.52;31.48;0.66
65988;SPS30;53592;51.402;6.054;2023-02-01T03:58:20;7.08;6.91;6.10;4.81;38.59;38.55;38.33;37.21;31.39;0.66
65988;SPS30;53592;51.402;6.054;2023-02-01T04:00:54;7.43;7.23;6.27;4.81;38.61;38.56;38.31;37.02;30.99;0.70
65988;SPS30;53592;51.402;6.054;2023-02-01T04:03:22;8.45;8.19;6.91;5.03;40.47;40.40;40.07;38.37;31.67;0.73
65988;SPS30;53592;51.402;6.054;2023-02-01T04:05:50;8.66;8.37;6.91;4.84;38.97;38.90;38.52;36.62;29.87;0.73
65988;SPS30;53592;51.402;6.054;2023-02-01T04:08:16;8.63;8.32;6.80;4.64;37.41;37.34;36.94;34.95;28.28;0.77
65988;SPS30;53592;51.402;6.054;2023-02-01T04:10:42;8.28;8.01;6.63;4.67;37.59;37.52;37.16;35.36;28.89;0.76
65988;SPS30;53592;51.402;6.054;2023-02-01T04:13:09;7.51;7.28;6.10;4.40;35.35;35.30;34.99;33.44;27.51;0.75
65988;SPS30;53592;51.402;6.054;2023-02-01T04:15:34;8.02;7.77;6.50;4.67;37.56;37.50;37.17;35.50;29.17;0.72
65988;SPS30;53592;51.402;6.054;2023-02-01T04:18:01;8.03;7.77;6.46;4.58;36.85;36.78;36.44;34.72;28.42;0.72
65988;SPS30;53592;51.402;6.054;2023-02-01T04:20:27;7.60;7.36;6.18;4.46;35.83;35.77;35.46;33.90;27.90;0.71
65988;SPS30;53592;51.402;6.054;2023-02-01T04:22:53;9.00;8.71;7.26;5.16;41.54;41.47;41.09;39.18;32.11;0.72
65988;SPS30;53592;51.402;6.054;2023-02-01T04:25:18;7.74;7.49;6.25;4.45;35.84;35.78;35.45;33.82;27.73;0.74
65988;SPS30;53592;51.402;6.054;2023-02-01T04:27:44;8.03;7.78;6.49;4.64;37.30;37.24;36.90;35.21;28.89;0.74
65988;SPS30;53592;51.402;6.054;2023-02-01T04:30:10;8.25;7.98;6.62;4.68;37.63;37.56;37.21;35.43;28.97;0.74
65988;SPS30;53592;51.402;6.054;2023-02-01T04:32:36;8.25;7.97;6.53;4.49;36.14;36.07;35.70;33.82;27.42;0.73
65988;SPS30;53592;51.402;6.054;2023-02-01T04:35:06;8.65;8.35;6.85;4.72;38.04;37.97;37.58;35.62;28.91;0.74
65988;SPS30;53592;51.402;6.054;2023-02-01T04:37:33;8.75;8.43;6.79;4.51;36.35;36.28;35.85;33.73;27.04;0.77
65988;SPS30;53592;51.402;6.054;2023-02-01T04:39:58;8.36;8.05;6.55;4.43;35.71;35.64;35.25;33.29;26.85;0.76
65988;SPS30;53592;51.402;6.054;2023-02-01T04:42:24;8.06;7.76;6.26;4.16;33.52;33.45;33.06;31.11;24.94;0.76
65988;SPS30;53592;51.402;6.054;2023-02-01T04:44:50;7.76;7.48;6.03;4.02;32.37;32.30;31.93;30.05;24.11;0.74
65988;SPS30;53592;51.402;6.054;2023-02-01T04:47:16;8.43;8.11;6.51;4.30;34.64;34.56;34.15;32.09;25.66;0.75
65988;SPS30;53592;51.402;6.054;2023-02-01T04:49:41;9.09;8.73;6.95;4.49;36.21;36.13;35.67;33.37;26.48;0.78
65988;SPS30;53592;51.402;6.054;2023-02-01T04:52:07;8.42;8.10;6.49;4.25;34.27;34.19;33.78;31.69;25.28;0.77
65988;SPS30;53592;51.402;6.054;2023-02-01T04:54:33;7.76;7.47;6.03;4.01;32.34;32.27;31.90;30.02;24.08;0.77
65988;SPS30;53592;51.402;6.054;2023-02-01T04:56:59;8.19;7.88;6.31;4.13;33.28;33.21;32.81;30.77;24.54;0.78
65988;SPS30;53592;51.402;6.054;2023-02-01T04:59:25;8.04;7.73;6.16;3.99;32.16;32.08;31.68;29.65;23.55;0.79
65988;SPS30;53592;51.402;6.054;2023-02-01T05:01:50;8.11;7.78;6.15;3.91;31.59;31.51;31.10;28.99;22.89;0.79
65988;SPS30;53592;51.402;6.054;2023-02-01T05:04:16;7.67;7.40;6.07;4.17;33.60;33.54;33.19;31.44;25.50;0.74
65988;SPS30;53592;51.402;6.054;2023-02-01T05:06:43;8.36;8.06;6.57;4.48;36.08;36.01;35.62;33.69;27.23;0.73
65988;SPS30;53592;51.402;6.054;2023-02-01T05:09:09;9.07;8.73;7.04;4.67;37.69;37.61;37.17;34.97;28.03;0.76
65988;SPS30;53592;51.402;6.054;2023-02-01T05:11:35;7.71;7.43;6.05;4.11;33.08;33.02;32.66;30.86;24.92;0.76
65988;SPS30;53592;51.402;6.054;2023-02-01T05:14:20;8.37;8.05;6.49;4.31;34.72;34.65;34.24;32.21;25.82;0.78
65988;SPS30;53592;51.402;6.054;2023-02-01T05:16:45;8.07;7.77;6.25;4.13;33.30;33.23;32.84;30.87;24.70;0.77
65988;SPS30;53592;51.402;6.054;2023-02-01T05:19:11;8.63;8.30;6.62;4.31;34.79;34.71;34.28;32.12;25.57;0.78
65988;SPS30;53592;51.402;6.054;2023-02-01T05:21:37;7.89;7.60;6.16;4.13;33.30;33.23;32.86;30.98;24.92;0.76
65988;SPS30;53592;51.402;6.054;2023-02-01T05:24:03;7.92;7.64;6.23;4.25;34.24;34.18;33.81;31.98;25.87;0.76
65988;SPS30;53592;51.402;6.054;2023-02-01T05:26:35;8.29;7.99;6.52;4.45;35.81;35.74;35.36;33.44;27.04;0.75
65988;SPS30;53592;51.402;6.054;2023-02-01T05:29:02;7.70;7.43;6.09;4.19;33.78;33.72;33.37;31.62;25.65;0.73
65988;SPS30;53592;51.402;6.054;2023-02-01T05:31:28;8.44;8.15;6.72;4.68;37.66;37.59;37.22;35.35;28.78;0.73
65988;SPS30;53592;51.402;6.054;2023-02-01T05:33:54;8.10;7.83;6.47;4.53;36.46;36.40;36.04;34.26;27.94;0.73
65988;SPS30;53592;51.402;6.054;2023-02-01T05:36:19;8.07;7.77;6.28;4.20;33.89;33.82;33.43;31.50;25.31;0.76
65988;SPS30;53592;51.402;6.054;2023-02-01T05:38:45;9.13;8.77;6.98;4.51;36.38;36.30;35.84;33.53;26.61;0.78
65988;SPS30;53592;51.402;6.054;2023-02-01T05:41:11;9.93;9.53;7.54;4.80;38.73;38.64;38.13;35.55;28.07;0.78
65988;SPS30;53592;51.402;6.054;2023-02-01T05:43:36;8.78;8.45;6.79;4.49;36.23;36.15;35.72;33.58;26.88;0.77
65988;SPS30;53592;51.402;6.054;2023-02-01T05:46:02;8.77;8.44;6.82;4.55;36.70;36.63;36.21;34.10;27.38;0.77
65988;SPS30;53592;51.402;6.054;2023-02-01T05:48:27;7.67;7.40;6.03;4.11;33.11;33.04;32.69;30.91;24.98;0.75
65988;SPS30;53592;51.402;6.054;2023-02-01T05:50:53;8.48;8.16;6.58;4.37;35.22;35.15;34.74;32.68;26.19;0.76
65988;SPS30;53592;51.402;6.054;2023-02-01T05:53:19;8.55;8.22;6.58;4.31;34.76;34.69;34.27;32.14;25.64;0.77
65988;SPS30;53592;51.402;6.054;2023-02-01T05:55:44;8.56;8.24;6.66;4.44;35.78;35.70;35.29;33.23;26.67;0.77
65988;SPS30;53592;51.402;6.054;2023-02-01T05:58:10;8.39;8.11;6.74;4.78;38.43;38.37;38.01;36.21;29.64;0.72
65988;SPS30;53592;51.402;6.054;2023-02-01T06:00:35;8.39;8.09;6.60;4.50;36.28;36.21;35.82;33.89;27.41;0.75
65988;SPS30;53592;51.402;6.054;2023-02-01T06:03:01;8.05;7.76;6.30;4.26;34.33;34.26;33.88;31.99;25.79;0.77
65988;SPS30;53592;51.402;6.054;2023-02-01T06:05:27;9.21;8.87;7.15;4.76;38.41;38.33;37.89;35.66;28.61;0.77
65988;SPS30;53592;51.402;6.054;2023-02-01T06:07:52;8.16;7.87;6.42;4.38;35.32;35.25;34.88;32.99;26.69;0.75
65988;SPS30;53592;51.402;6.054;2023-02-01T06:10:18;8.40;8.08;6.51;4.31;34.79;34.72;34.31;32.27;25.85;0.76
65988;SPS30;53592;51.402;6.054;2023-02-01T06:12:44;8.85;8.53;6.92;4.66;37.56;37.49;37.07;34.98;28.17;0.76
65988;SPS30;53592;51.402;6.054;2023-02-01T06:15:10;8.44;8.12;6.55;4.35;35.03;34.96;34.55;32.51;26.05;0.80
65988;SPS30;53592;51.402;6.054;2023-02-01T06:17:37;9.03;8.68;6.91;4.48;36.12;36.04;35.58;33.30;26.46;0.81
65988;SPS30;53592;51.402;6.054;2023-02-01T06:20:05;9.02;8.68;6.98;4.61;37.20;37.13;36.69;34.48;27.59;0.78
65988;SPS30;53592;51.402;6.054;2023-02-01T06:22:31;9.05;8.74;7.14;4.88;39.34;39.27;38.85;36.77;29.77;0.77
65988;SPS30;53592;51.402;6.054;2023-02-01T06:24:58;8.48;8.17;6.60;4.41;35.56;35.49;35.08;33.05;26.55;0.78
65988;SPS30;53592;51.402;6.054;2023-02-01T06:27:24;8.79;8.46;6.82;4.52;36.48;36.40;35.98;33.84;27.12;0.77
65988;SPS30;53592;51.402;6.054;2023-02-01T06:29:50;8.94;8.60;6.89;4.51;36.41;36.33;35.89;33.67;26.86;0.79
65988;SPS30;53592;51.402;6.054;2023-02-01T06:32:15;8.81;8.47;6.78;4.44;35.82;35.75;35.31;33.13;26.42;0.77
65988;SPS30;53592;51.402;6.054;2023-02-01T06:34:42;9.92;9.53;7.62;4.97;40.07;39.98;39.49;37.01;29.47;0.77
65988;SPS30;53592;51.402;6.054;2023-02-01T06:37:08;9.50;9.12;7.21;4.58;36.99;36.90;36.41;33.95;26.79;0.80
65988;SPS30;53592;51.402;6.054;2023-02-01T06:39:36;9.58;9.19;7.24;4.57;36.94;36.85;36.35;33.84;26.64;0.79
65988;SPS30;53592;51.402;6.054;2023-02-01T06:42:02;10.06;9.65;7.60;4.79;38.71;38.62;38.09;35.45;27.89;0.78
65988;SPS30;53592;51.402;6.054;2023-02-01T06:44:27;9.85;9.45;7.44;4.68;37.82;37.73;37.21;34.62;27.22;0.80
65988;SPS30;53592;51.402;6.054;2023-02-01T06:46:53;9.89;9.49;7.50;4.76;38.44;38.35;37.84;35.27;27.81;0.82
65988;SPS30;53592;51.402;6.054;2023-02-01T06:49:19;9.83;9.45;7.56;4.95;39.90;39.81;39.32;36.88;29.40;0.79
65988;SPS30;53592;51.402;6.054;2023-02-01T06:51:45;8.82;8.49;6.85;4.56;36.74;36.67;36.24;34.12;27.37;0.76
65988;SPS30;53592;51.402;6.054;2023-02-01T06:54:11;8.69;8.35;6.69;4.38;35.34;35.26;34.84;32.68;26.07;0.77
65988;SPS30;53592;51.402;6.054;2023-02-01T06:56:36;10.04;9.66;7.71;5.03;40.54;40.45;39.95;37.44;29.81;0.76
65988;SPS30;53592;51.402;6.054;2023-02-01T06:59:05;8.86;8.54;6.96;4.73;38.12;38.05;37.64;35.58;28.75;0.74
65988;SPS30;53592;51.402;6.054;2023-02-01T07:01:32;8.39;8.10;6.62;4.54;36.54;36.47;36.08;34.16;27.66;0.74
65988;SPS30;53592;51.402;6.054;2023-02-01T07:03:58;9.74;9.36;7.44;4.80;38.76;38.67;38.18;35.70;28.32;0.78
65988;SPS30;53592;51.402;6.054;2023-02-01T07:06:23;9.69;9.31;7.41;4.78;38.58;38.49;38.00;35.54;28.20;0.78
65988;SPS30;53592;51.402;6.054;2023-02-01T07:08:49;9.14;8.80;7.10;4.72;38.07;37.99;37.55;35.34;28.34;0.75
65988;SPS30;53592;51.402;6.054;2023-02-01T07:11:15;9.06;8.73;7.09;4.78;38.53;38.45;38.03;35.89;28.92;0.74
65988;SPS30;53592;51.402;6.054;2023-02-01T07:13:41;8.09;7.82;6.46;4.53;36.45;36.39;36.04;34.26;27.94;0.72
65988;SPS30;53592;51.402;6.054;2023-02-01T07:16:14;8.65;8.35;6.84;4.71;37.93;37.86;37.47;35.50;28.80;0.72
65988;SPS30;53592;51.402;6.054;2023-02-01T07:18:42;9.29;8.95;7.27;4.91;39.58;39.50;39.06;36.88;29.73;0.76
65988;SPS30;53592;51.402;6.054;2023-02-01T07:21:08;8.54;8.23;6.67;4.49;36.20;36.12;35.72;33.70;27.13;0.76
65988;SPS30;53592;51.402;6.054;2023-02-01T07:23:34;8.72;8.40;6.82;4.61;37.12;37.05;36.64;34.59;27.88;0.75
65988;SPS30;53592;51.402;6.054;2023-02-01T07:26:01;8.98;8.65;6.96;4.62;37.23;37.15;36.72;34.53;27.66;0.75
65988;SPS30;53592;51.402;6.054;2023-02-01T07:28:29;9.44;9.07;7.23;4.68;37.80;37.71;37.24;34.86;27.70;0.77
65988;SPS30;53592;51.402;6.054;2023-02-01T07:33:24;9.47;9.10;7.29;4.78;38.52;38.44;37.97;35.62;28.42;0.78
65988;SPS30;53592;51.402;6.054;2023-02-01T07:35:51;8.86;8.52;6.81;4.44;35.80;35.73;35.28;33.07;26.34;0.77
65988;SPS30;53592;51.402;6.054;2023-02-01T07:38:17;9.19;8.85;7.12;4.73;38.10;38.02;37.58;35.35;28.32;0.78
65988;SPS30;53592;51.402;6.054;2023-02-01T07:40:42;9.50;9.13;7.28;4.73;38.17;38.09;37.61;35.22;28.01;0.79
65988;SPS30;53592;51.402;6.054;2023-02-01T07:43:08;9.37;8.99;7.09;4.48;36.21;36.12;35.63;33.19;26.14;0.82
65988;SPS30;53592;51.402;6.054;2023-02-01T07:45:34;9.36;8.99;7.15;4.61;37.18;37.10;36.63;34.24;27.16;0.80
65988;SPS30;53592;51.402;6.054;2023-02-01T07:48:01;8.86;8.52;6.84;4.50;36.31;36.23;35.80;33.62;26.86;0.76
65988;SPS30;53592;51.402;6.054;2023-02-01T07:50:27;8.95;8.61;6.96;4.64;37.42;37.34;36.92;34.76;27.91;0.75
65988;SPS30;53592;51.402;6.054;2023-02-01T07:52:52;8.60;8.30;6.78;4.64;37.41;37.34;36.94;34.97;28.32;0.74
65988;SPS30;53592;51.402;6.054;2023-02-01T07:55:18;8.42;8.13;6.66;4.58;36.85;36.78;36.39;34.47;27.95;0.75
65988;SPS30;53592;51.402;6.054;2023-02-01T07:57:44;8.60;8.30;6.78;4.64;37.35;37.28;36.88;34.91;28.25;0.76
65988;SPS30;53592;51.402;6.054;2023-02-01T08:00:10;8.53;8.22;6.67;4.50;36.23;36.16;35.76;33.74;27.18;0.76
65988;SPS30;53592;51.402;6.054;2023-02-01T08:02:57;10.28;9.86;7.77;4.91;39.64;39.55;39.01;36.32;28.59;0.80
65988;SPS30;53592;51.402;6.054;2023-02-01T08:05:23;9.56;9.19;7.34;4.78;38.57;38.48;38.01;35.61;28.35;0.78
65988;SPS30;53592;51.402;6.054;2023-02-01T08:07:49;9.16;8.81;7.02;4.54;36.66;36.58;36.12;33.81;26.86;0.79
65988;SPS30;53592;51.402;6.054;2023-02-01T08:10:15;10.29;9.89;7.89;5.13;41.38;41.29;40.78;38.19;30.38;0.78
65988;SPS30;53592;51.402;6.054;2023-02-01T08:12:41;9.16;8.82;7.09;4.67;37.70;37.62;37.17;34.92;27.93;0.77
65988;SPS30;53592;51.402;6.054;2023-02-01T08:15:07;8.53;8.22;6.65;4.47;35.99;35.92;35.52;33.48;26.93;0.76
65988;SPS30;53592;51.402;6.054;2023-02-01T08:17:33;8.13;7.84;6.37;4.31;34.75;34.68;34.30;32.39;26.13;0.77
65988;SPS30;53592;51.402;6.054;2023-02-01T08:19:58;8.77;8.45;6.82;4.55;36.65;36.57;36.15;34.04;27.32;0.78
65988;SPS30;53592;51.402;6.054;2023-02-01T08:22:24;9.06;8.73;7.12;4.86;39.12;39.04;38.62;36.52;29.53;0.76
65988;SPS30;53592;51.402;6.054;2023-02-01T08:24:50;9.10;8.76;7.07;4.71;37.94;37.86;37.42;35.23;28.26;0.76
65988;SPS30;53592;51.402;6.054;2023-02-01T08:27:15;8.32;8.02;6.53;4.43;35.71;35.64;35.25;33.31;26.89;0.75
65988;SPS30;53592;51.402;6.054;2023-02-01T08:29:41;9.04;8.71;7.05;4.72;38.05;37.97;37.54;35.38;28.44;0.76
65988;SPS30;53592;51.402;6.054;2023-02-01T08:32:06;9.42;9.08;7.35;4.93;39.74;39.66;39.21;36.96;29.73;0.75
65988;SPS30;53592;51.402;6.054;2023-02-01T08:34:32;8.98;8.65;7.02;4.73;38.11;38.03;37.61;35.48;28.58;0.75
65988;SPS30;53592;51.402;6.054;2023-02-01T08:36:57;8.96;8.65;7.09;4.88;39.28;39.21;38.81;36.77;29.82;0.75
65988;SPS30;53592;51.402;6.054;2023-02-01T08:39:24;8.87;8.54;6.90;4.60;37.10;37.02;36.60;34.46;27.67;0.76
65988;SPS30;53592;51.402;6.054;2023-02-01T08:41:50;9.10;8.77;7.13;4.83;38.93;38.85;38.43;36.30;29.29;0.77
65988;SPS30;53592;51.402;6.054;2023-02-01T08:44:34;9.57;9.22;7.45;4.97;40.08;39.99;39.54;37.24;29.90;0.78
65988;SPS30;53592;51.402;6.054;2023-02-01T08:46:59;9.63;9.27;7.45;4.92;39.69;39.60;39.13;36.78;29.42;0.78
65988;SPS30;53592;51.402;6.054;2023-02-01T08:49:25;8.79;8.47;6.86;4.61;37.17;37.10;36.68;34.59;27.84;0.76
65988;SPS30;53592;51.402;6.054;2023-02-01T08:51:50;8.45;8.14;6.63;4.50;36.25;36.18;35.79;33.82;27.30;0.76
65988;SPS30;53592;51.402;6.054;2023-02-01T08:54:15;8.30;8.04;6.73;4.83;38.83;38.77;38.43;36.70;30.16;0.72
65988;SPS30;53592;51.402;6.054;2023-02-01T08:56:41;8.69;8.41;6.99;4.96;39.88;39.81;39.44;37.58;30.77;0.74
65988;SPS30;53592;51.402;6.054;2023-02-01T08:59:06;8.17;7.90;6.55;4.62;37.18;37.12;36.77;35.00;28.61;0.74
65988;SPS30;53592;51.402;6.054;2023-02-01T09:01:32;8.31;8.06;6.81;4.98;40.01;39.94;39.62;37.96;31.36;0.73
65988;SPS30;53592;51.402;6.054;2023-02-01T09:03:57;8.54;8.28;6.99;5.10;41.03;40.96;40.63;38.92;32.14;0.73
65988;SPS30;53592;51.402;6.054;2023-02-01T09:06:23;7.94;7.70;6.51;4.75;38.22;38.16;37.85;36.26;29.96;0.71
65988;SPS30;53592;51.402;6.054;2023-02-01T09:08:48;8.19;7.93;6.64;4.77;38.38;38.32;37.98;36.28;29.82;0.70
65988;SPS30;53592;51.402;6.054;2023-02-01T09:11:15;8.76;8.47;6.98;4.87;39.22;39.15;38.76;36.82;29.99;0.72
65988;SPS30;53592;51.402;6.054;2023-02-01T09:13:43;8.37;8.11;6.77;4.84;38.96;38.90;38.55;36.79;30.20;0.70
65988;SPS30;53592;51.402;6.054;2023-02-01T09:16:10;8.34;8.07;6.74;4.82;38.79;38.73;38.38;36.63;30.07;0.72
65988;SPS30;53592;51.402;6.054;2023-02-01T09:18:36;8.09;7.82;6.52;4.64;37.33;37.26;36.92;35.21;28.86;0.72
65988;SPS30;53592;51.402;6.054;2023-02-01T09:21:05;8.94;8.63;7.11;4.94;39.75;39.68;39.28;37.28;30.33;0.73
65988;SPS30;53592;51.402;6.054;2023-02-01T09:23:32;8.51;8.25;6.91;4.97;40.01;39.94;39.60;37.84;31.12;0.71
65988;SPS30;53592;51.402;6.054;2023-02-01T09:26:02;7.91;7.65;6.34;4.46;35.88;35.81;35.47;33.75;27.57;0.74
65988;SPS30;53592;51.402;6.054;2023-02-01T09:28:29;7.92;7.65;6.30;4.39;35.33;35.27;34.92;33.16;26.99;0.73
65988;SPS30;53592;51.402;6.054;2023-02-01T09:30:59;7.99;7.76;6.58;4.84;38.88;38.82;38.51;36.94;30.57;0.69
65988;SPS30;53592;51.402;6.054;2023-02-01T09:33:26;8.57;8.28;6.82;4.75;38.25;38.18;37.80;35.90;29.22;0.75
65988;SPS30;53592;51.402;6.054;2023-02-01T09:36:00;8.44;8.13;6.58;4.41;35.54;35.47;35.06;33.05;26.57;0.77
65988;SPS30;53592;51.402;6.054;2023-02-01T09:38:28;8.72;8.42;6.92;4.80;38.63;38.56;38.17;36.22;29.44;0.75
65988;SPS30;53592;51.402;6.054;2023-02-01T09:40:54;8.27;8.01;6.68;4.77;38.36;38.30;37.95;36.20;29.70;0.73
65988;SPS30;53592;51.402;6.054;2023-02-01T09:43:24;7.93;7.68;6.39;4.55;36.59;36.53;36.19;34.51;28.28;0.73